createdAt,value
2023-01-13T00:01:44.668Z,84.83
2023-01-13T00:05:06.743Z,84.38
2023-01-13T00:08:21.766Z,85.25
2023-01-13T00:11:43.652Z,85.15
2023-01-13T00:15:05.677Z,85.73
2023-01-13T00:18:27.683Z,85.56
2023-01-13T00:21:43.283Z,85.30
2023-01-13T00:25:07.671Z,84.84
2023-01-13T00:28:29.662Z,84.89
2023-01-13T00:31:52.690Z,85.05
2023-01-13T00:35:07.752Z,86.29
2023-01-13T00:38:29.640Z,85.00
2023-01-13T00:42:03.208Z,84.94
2023-01-13T00:45:24.653Z,85.00
2023-01-13T00:48:46.632Z,85.17
2023-01-13T00:52:01.907Z,85.72
2023-01-13T00:55:23.668Z,85.77
2023-01-13T00:58:45.673Z,85.43
2023-01-13T01:02:00.885Z,85.54
2023-01-13T01:05:22.636Z,85.65
2023-01-13T01:08:44.623Z,86.55
2023-01-13T01:12:07.639Z,86.11
2023-01-13T01:15:29.647Z,85.46
2023-01-13T01:18:45.920Z,85.97
2023-01-13T01:22:07.643Z,86.22
2023-01-13T01:25:29.632Z,86.50
2023-01-13T01:28:44.692Z,85.94
2023-01-13T01:31:59.650Z,86.51
2023-01-13T01:35:21.604Z,85.36
2023-01-13T01:38:36.891Z,85.92
2023-01-13T01:42:16.598Z,86.58
2023-01-13T01:45:33.777Z,86.07
2023-01-13T01:48:55.592Z,85.96
2023-01-13T01:52:22.586Z,86.70
2023-01-13T01:55:44.623Z,86.93
2023-01-13T01:59:07.594Z,87.54
2023-01-13T02:02:22.923Z,86.83
2023-01-13T02:05:45.636Z,86.24
2023-01-13T02:09:07.612Z,87.19
2023-01-13T02:12:34.731Z,87.35
2023-01-13T02:16:14.660Z,87.66
2023-01-13T02:19:56.608Z,87.14
2023-01-13T02:23:40.798Z,86.84
2023-01-13T02:27:21.608Z,86.11
2023-01-13T02:31:07.585Z,86.42
2023-01-13T02:34:27.693Z,86.00
2023-01-13T02:37:50.610Z,86.66
2023-01-13T02:41:44.558Z,86.90
2023-01-13T02:45:13.577Z,86.17
2023-01-13T02:48:36.584Z,85.87
2023-01-13T02:51:59.584Z,86.71
2023-01-13T02:55:24.606Z,86.41
2023-01-13T02:58:48.591Z,86.09
2023-01-13T03:02:10.739Z,85.58
2023-01-13T03:05:33.588Z,85.67
2023-01-13T03:08:54.680Z,85.93
2023-01-13T03:12:27.555Z,85.96
2023-01-13T03:16:07.566Z,86.90
2023-01-13T03:19:31.609Z,85.90
2023-01-13T03:22:52.348Z,86.52
2023-01-13T03:26:22.620Z,85.81
2023-01-13T03:29:44.545Z,85.54
2023-01-13T03:33:03.445Z,86.72
2023-01-13T03:36:28.623Z,87.11
2023-01-13T03:39:53.528Z,86.12
2023-01-13T03:43:40.542Z,86.51
2023-01-13T03:47:02.606Z,85.80
2023-01-13T03:50:46.606Z,86.01
2023-01-13T03:54:12.524Z,85.99
2023-01-13T03:57:36.562Z,86.21
2023-01-13T04:01:24.695Z,86.30
2023-01-13T04:04:49.541Z,86.89
2023-01-13T04:08:23.561Z,86.42
2023-01-13T04:11:51.545Z,86.15
2023-01-13T04:15:07.044Z,86.15
2023-01-13T04:18:24.539Z,86.37
2023-01-13T04:21:39.621Z,86.96
2023-01-13T04:25:01.579Z,86.07
2023-01-13T04:28:24.517Z,86.78
2023-01-13T04:31:46.550Z,86.62
2023-01-13T04:35:01.634Z,85.82
2023-01-13T04:38:24.549Z,85.39
2023-01-13T04:42:04.530Z,86.91
2023-01-13T04:45:26.537Z,87.41
2023-01-13T04:48:41.601Z,87.09
2023-01-13T04:52:03.494Z,86.54
2023-01-13T04:55:26.568Z,86.15
2023-01-13T04:58:41.778Z,86.15
2023-01-13T05:02:03.530Z,87.47
2023-01-13T05:05:25.509Z,85.74
2023-01-13T05:08:40.653Z,85.74
2023-01-13T05:12:20.573Z,86.29
2023-01-13T05:16:00.595Z,85.90
2023-01-13T05:19:15.723Z,87.17
2023-01-13T05:22:55.486Z,86.16
2023-01-13T05:26:17.476Z,87.57
2023-01-13T05:29:39.474Z,88.72
2023-01-13T05:32:54.711Z,87.34
2023-01-13T05:36:16.445Z,86.62
2023-01-13T05:39:58.481Z,88.09
2023-01-13T05:43:31.465Z,87.79
2023-01-13T05:46:53.540Z,86.96
2023-01-13T05:50:08.620Z,87.58
2023-01-13T05:53:30.492Z,87.16
2023-01-13T05:56:52.463Z,87.27
2023-01-13T06:00:15.529Z,86.68
2023-01-13T06:03:37.494Z,87.34
2023-01-13T06:06:59.520Z,87.50
2023-01-13T06:10:14.604Z,86.44
2023-01-13T06:13:37.492Z,85.79
2023-01-13T06:16:59.459Z,86.21
2023-01-13T06:20:15.333Z,87.09
2023-01-13T06:23:41.456Z,86.92
2023-01-13T06:27:03.464Z,86.46
2023-01-13T06:30:25.477Z,86.87
2023-01-13T06:33:52.551Z,87.05
2023-01-13T06:37:16.472Z,87.11
2023-01-13T06:40:38.427Z,86.63
2023-01-13T06:44:00.469Z,86.53
2023-01-13T06:47:22.521Z,87.08
2023-01-13T06:50:44.454Z,87.53
2023-01-13T06:54:06.466Z,87.54
2023-01-13T06:57:21.576Z,87.59
2023-01-13T07:00:43.466Z,88.21
2023-01-13T07:04:05.411Z,87.64
2023-01-13T07:07:27.466Z,87.95
2023-01-13T07:10:42.626Z,87.49
2023-01-13T07:14:22.390Z,87.18
2023-01-13T07:17:44.464Z,86.83
2023-01-13T07:21:10.444Z,86.94
2023-01-13T07:24:32.438Z,87.98
2023-01-13T07:27:54.469Z,87.55
2023-01-13T07:31:16.462Z,87.62
2023-01-13T07:34:31.400Z,87.44
2023-01-13T07:37:53.474Z,88.17
2023-01-13T07:41:27.115Z,87.46
2023-01-13T07:44:48.436Z,87.37
2023-01-13T07:48:10.542Z,86.91
2023-01-13T07:51:25.697Z,86.14
2023-01-13T07:54:47.439Z,86.64
2023-01-13T07:58:02.578Z,86.08
2023-01-13T08:01:25.501Z,84.30
2023-01-13T08:04:40.680Z,84.14
2023-01-13T08:08:02.420Z,84.22
2023-01-13T08:11:24.424Z,84.57
2023-01-13T08:14:46.428Z,84.97
2023-01-13T08:18:08.410Z,84.54
2023-01-13T08:21:30.375Z,85.08
2023-01-13T08:24:52.343Z,83.60
2023-01-13T08:28:14.452Z,83.57
2023-01-13T08:31:29.647Z,83.55
2023-01-13T08:34:51.432Z,84.10
2023-01-13T08:38:08.044Z,83.84
2023-01-13T08:41:49.402Z,82.65
2023-01-13T08:45:05.262Z,81.67
2023-01-13T08:48:28.587Z,82.37
2023-01-13T08:51:52.374Z,82.57
2023-01-13T08:55:07.455Z,82.64
2023-01-13T08:58:29.374Z,82.11
2023-01-13T09:01:44.592Z,81.26
2023-01-13T09:05:09.376Z,81.41
2023-01-13T09:08:31.414Z,82.73
2023-01-13T09:12:06.891Z,81.26
2023-01-13T09:15:28.424Z,80.32
2023-01-13T09:18:50.358Z,81.08
2023-01-13T09:22:12.380Z,80.50
2023-01-13T09:25:34.350Z,79.48
2023-01-13T09:28:56.347Z,78.51
2023-01-13T09:32:18.359Z,79.21
2023-01-13T09:35:40.385Z,79.04
2023-01-13T09:38:55.570Z,79.86
2023-01-13T09:42:39.323Z,79.15
2023-01-13T09:46:10.438Z,79.86
2023-01-13T09:49:32.475Z,79.43
2023-01-13T09:52:54.372Z,79.07
2023-01-13T09:56:09.480Z,79.21
2023-01-13T09:59:33.405Z,80.07
2023-01-13T10:03:03.472Z,78.20
2023-01-13T10:06:35.366Z,78.61
2023-01-13T10:10:03.282Z,80.16
2023-01-13T10:13:22.357Z,77.88
2023-01-13T10:16:51.314Z,77.96
2023-01-13T10:20:15.922Z,78.64
2023-01-13T10:24:06.350Z,77.92
2023-01-13T10:27:37.325Z,77.67
2023-01-13T10:30:53.581Z,77.45
2023-01-13T10:34:15.343Z,79.14
2023-01-13T10:37:31.701Z,79.80
2023-01-13T10:41:04.304Z,79.26
2023-01-13T10:44:30.321Z,77.64
2023-01-13T10:48:09.329Z,77.40
2023-01-13T10:51:36.337Z,78.02
2023-01-13T10:55:01.300Z,79.36
2023-01-13T10:58:27.829Z,79.12
2023-01-13T11:01:51.965Z,78.52
2023-01-13T11:05:16.278Z,78.61
2023-01-13T11:08:41.153Z,78.89
2023-01-13T11:12:03.283Z,77.95
2023-01-13T11:15:28.328Z,78.38
2023-01-13T11:19:02.113Z,78.38
2023-01-13T11:22:27.333Z,78.87
2023-01-13T11:25:54.308Z,80.21
2023-01-13T11:29:15.040Z,80.13
2023-01-13T11:32:37.333Z,79.26
2023-01-13T11:36:01.304Z,79.27
2023-01-13T11:39:31.250Z,80.04
2023-01-13T11:42:56.288Z,80.24
2023-01-13T11:46:12.333Z,79.78
2023-01-13T11:49:36.320Z,79.43
2023-01-13T11:53:10.549Z,78.85
2023-01-13T11:56:34.257Z,78.11
2023-01-13T11:59:59.292Z,78.16
2023-01-13T12:03:26.841Z,76.84
2023-01-13T12:06:50.225Z,78.09
2023-01-13T12:10:32.292Z,76.71
2023-01-13T12:13:47.342Z,77.00
2023-01-13T12:17:11.273Z,76.55
2023-01-13T12:20:36.274Z,75.90
2023-01-13T12:23:58.232Z,75.03
2023-01-13T12:27:38.210Z,76.75
2023-01-13T12:30:59.157Z,75.72
2023-01-13T12:34:27.239Z,77.21
2023-01-13T12:37:49.193Z,77.21
2023-01-13T12:41:17.250Z,76.81
2023-01-13T12:44:39.243Z,77.69
2023-01-13T12:47:54.395Z,78.26
2023-01-13T12:51:27.266Z,78.69
2023-01-13T12:54:48.341Z,78.29
2023-01-13T12:58:10.275Z,77.41
2023-01-13T13:01:32.395Z,78.35
2023-01-13T13:04:51.974Z,77.98
2023-01-13T13:08:24.223Z,78.82
2023-01-13T13:12:07.235Z,78.25
2023-01-13T13:15:31.355Z,78.01
2023-01-13T13:18:53.208Z,78.86
2023-01-13T13:22:21.269Z,78.76
2023-01-13T13:25:43.227Z,77.87
2023-01-13T13:29:16.310Z,78.77
2023-01-13T13:32:47.207Z,78.94
2023-01-13T13:36:09.326Z,79.33
2023-01-13T13:39:52.234Z,79.64
2023-01-13T13:43:25.717Z,79.36
2023-01-13T13:46:54.228Z,78.92
2023-01-13T13:50:20.246Z,78.44
2023-01-13T13:53:40.645Z,77.62
2023-01-13T13:57:03.195Z,77.69
2023-01-13T14:00:30.157Z,78.08
2023-01-13T14:03:53.188Z,78.36
2023-01-13T14:07:18.507Z,78.78
2023-01-13T14:10:50.193Z,78.97
2023-01-13T14:14:13.176Z,78.47
2023-01-13T14:17:33.235Z,79.06
2023-01-13T14:21:04.176Z,78.83
2023-01-13T14:24:22.580Z,79.10
2023-01-13T14:27:49.109Z,78.66
2023-01-13T14:31:11.153Z,77.42
2023-01-13T14:34:32.385Z,78.29
2023-01-13T14:37:57.063Z,78.19
2023-01-13T14:41:17.733Z,77.75
2023-01-13T14:44:39.123Z,78.25
2023-01-13T14:47:54.385Z,80.05
2023-01-13T14:51:17.095Z,78.89
2023-01-13T14:54:50.101Z,78.91
2023-01-13T14:58:50.148Z,78.29
2023-01-13T15:02:24.486Z,78.40
2023-01-13T15:05:49.109Z,78.53
2023-01-13T15:09:18.048Z,78.85
2023-01-13T15:12:49.071Z,78.34
2023-01-13T15:16:21.151Z,78.68
2023-01-13T15:19:36.164Z,79.89
2023-01-13T15:22:59.081Z,79.41
2023-01-13T15:26:30.050Z,79.13
2023-01-13T15:29:52.090Z,78.96
2023-01-13T15:33:14.112Z,79.04
2023-01-13T15:36:37.028Z,79.45
2023-01-13T15:39:52.104Z,79.22
2023-01-13T15:43:37.087Z,79.74
2023-01-13T15:46:59.061Z,79.52
2023-01-13T15:50:15.239Z,79.33
2023-01-13T15:53:37.046Z,79.26
2023-01-13T15:56:52.836Z,79.21
2023-01-13T16:00:15.078Z,79.92
2023-01-13T16:03:37.030Z,80.24
2023-01-13T16:06:59.044Z,79.94
2023-01-13T16:10:26.049Z,78.98
2023-01-13T16:13:48.044Z,79.19
2023-01-13T16:17:03.990Z,79.50
2023-01-13T16:20:27.015Z,79.84
2023-01-13T16:23:49.079Z,80.30
2023-01-13T16:27:04.153Z,80.77
2023-01-13T16:30:36.042Z,79.68
2023-01-13T16:33:51.188Z,79.87
2023-01-13T16:37:17.072Z,80.77
2023-01-13T16:40:39.193Z,80.12
2023-01-13T16:44:01.062Z,80.38
2023-01-13T16:47:31.115Z,80.21
2023-01-13T16:50:46.693Z,80.63
2023-01-13T16:54:08.054Z,81.22
2023-01-13T16:57:23.334Z,81.08
2023-01-13T17:00:45.097Z,80.19
2023-01-13T17:04:07.084Z,81.46
2023-01-13T17:07:23.179Z,81.26
2023-01-13T17:10:45.103Z,81.73
2023-01-13T17:14:18.231Z,80.67
2023-01-13T17:17:34.267Z,81.40
2023-01-13T17:20:56.054Z,81.37
2023-01-13T17:24:19.097Z,80.89
2023-01-13T17:27:41.074Z,81.12
2023-01-13T17:30:56.284Z,80.91
2023-01-13T17:34:18.134Z,82.01
2023-01-13T17:37:40.060Z,81.94
2023-01-13T17:41:02.091Z,81.63
2023-01-13T17:44:18.232Z,81.64
2023-01-13T17:47:40.090Z,82.29
2023-01-13T17:51:02.047Z,81.48
2023-01-13T17:54:17.162Z,82.81
2023-01-13T17:57:39.036Z,81.55
2023-01-13T18:00:54.183Z,82.29
2023-01-13T18:04:23.059Z,82.05
2023-01-13T18:07:45.094Z,82.05
2023-01-13T18:11:00.788Z,81.58
2023-01-13T18:14:23.025Z,81.73
2023-01-13T18:17:38.233Z,81.81
2023-01-13T18:21:18.016Z,81.04
2023-01-13T18:25:05.004Z,81.06
2023-01-13T18:28:20.257Z,81.22
2023-01-13T18:31:42.007Z,81.13
2023-01-13T18:35:06.532Z,81.72
2023-01-13T18:38:26.358Z,81.56
2023-01-13T18:42:06.013Z,81.51
2023-01-13T18:45:28.031Z,82.27
2023-01-13T18:48:49.994Z,82.48
2023-01-13T18:52:12.071Z,82.35
2023-01-13T18:55:34.998Z,83.62
2023-01-13T18:58:52.112Z,82.96
2023-01-13T19:02:20.119Z,82.49
2023-01-13T19:05:35.214Z,82.06
2023-01-13T19:09:00.016Z,82.64
2023-01-13T19:12:23.027Z,82.93
2023-01-13T19:15:45.031Z,82.32
2023-01-13T19:19:00.091Z,82.02
2023-01-13T19:22:24.038Z,82.01
2023-01-13T19:25:39.176Z,81.38
2023-01-13T19:29:01.027Z,82.20
2023-01-13T19:32:16.203Z,83.12
2023-01-13T19:35:37.975Z,82.76
2023-01-13T19:39:00.010Z,82.95
2023-01-13T19:42:33.904Z,85.04
2023-01-13T19:45:56.050Z,82.93
2023-01-13T19:49:17.957Z,82.57
2023-01-13T19:52:40.005Z,83.03
2023-01-13T19:55:55.231Z,82.08
2023-01-13T19:59:17.000Z,84.38
2023-01-13T20:02:32.371Z,83.37
2023-01-13T20:05:53.982Z,83.76
2023-01-13T20:09:09.200Z,83.27
2023-01-13T20:12:31.029Z,83.06
2023-01-13T20:15:52.991Z,82.83
2023-01-13T20:19:14.929Z,83.32
2023-01-13T20:22:36.909Z,84.64
2023-01-13T20:25:58.969Z,84.08
2023-01-13T20:29:20.954Z,83.67
2023-01-13T20:32:42.979Z,83.05
2023-01-13T20:36:04.945Z,82.48
2023-01-13T20:39:21.086Z,83.27
2023-01-13T20:42:51.974Z,82.66
2023-01-13T20:46:16.909Z,83.36
2023-01-13T20:49:38.937Z,84.76
2023-01-13T20:53:00.964Z,84.49
2023-01-13T20:56:16.243Z,84.12
2023-01-13T20:59:37.927Z,83.29
2023-01-13T21:02:59.949Z,83.84
2023-01-13T21:06:26.971Z,83.26
2023-01-13T21:09:42.153Z,82.72
2023-01-13T21:13:21.932Z,82.75
2023-01-13T21:16:37.165Z,84.09
2023-01-13T21:19:51.883Z,84.92
2023-01-13T21:23:14.946Z,84.02
2023-01-13T21:26:30.664Z,83.00
2023-01-13T21:29:51.946Z,84.63
2023-01-13T21:33:13.933Z,85.67
2023-01-13T21:36:29.074Z,84.43
2023-01-13T21:39:50.933Z,84.18
2023-01-13T21:43:24.749Z,84.17
2023-01-13T21:47:04.856Z,82.93
2023-01-13T21:50:27.868Z,84.40
2023-01-13T21:53:49.901Z,84.07
2023-01-13T21:57:05.052Z,83.84
2023-01-13T22:00:27.886Z,83.63
2023-01-13T22:04:07.904Z,82.92
2023-01-13T22:07:29.901Z,83.96
2023-01-13T22:11:03.900Z,82.84
2023-01-13T22:14:19.354Z,83.27
2023-01-13T22:17:41.940Z,83.47
2023-01-13T22:21:06.880Z,83.45
2023-01-13T22:24:28.926Z,83.13
2023-01-13T22:27:45.005Z,83.04
2023-01-13T22:31:06.847Z,83.72
2023-01-13T22:34:28.864Z,83.53
2023-01-13T22:37:50.897Z,82.95
2023-01-13T22:41:13.894Z,83.43
2023-01-13T22:44:35.915Z,83.64
2023-01-13T22:47:57.875Z,83.22
2023-01-13T22:51:12.958Z,83.55
2023-01-13T22:54:34.928Z,83.43
2023-01-13T22:57:49.930Z,83.69
2023-01-13T23:01:15.961Z,84.19
2023-01-13T23:04:37.913Z,82.83
2023-01-13T23:07:59.901Z,83.80
2023-01-13T23:11:27.858Z,83.95
2023-01-13T23:14:49.911Z,83.92
2023-01-13T23:18:05.036Z,84.15
2023-01-13T23:21:30.837Z,83.98
2023-01-13T23:24:52.858Z,83.21
2023-01-13T23:28:16.847Z,82.94
2023-01-13T23:31:38.859Z,83.67
2023-01-13T23:35:00.860Z,84.14
2023-01-13T23:38:22.805Z,84.33
2023-01-13T23:41:44.870Z,84.09
2023-01-13T23:45:06.832Z,84.84
2023-01-13T23:48:22.091Z,84.69
2023-01-13T23:51:43.818Z,84.24
2023-01-13T23:55:05.805Z,83.33
2023-01-13T23:58:27.827Z,83.75
